createdAt,value
2018-03-19T00:01:32.746Z,101477.11
2018-03-19T00:06:35.273Z,101480.72
2018-03-19T00:11:37.816Z,101484.00
2018-03-19T00:16:40.350Z,101479.17
2018-03-19T00:21:42.832Z,101482.31
2018-03-19T00:26:45.339Z,101477.99
2018-03-19T00:31:47.912Z,101471.22
2018-03-19T00:36:50.407Z,101471.66
2018-03-19T00:41:52.865Z,101467.20
2018-03-19T00:46:55.345Z,101461.86
2018-03-19T00:51:57.862Z,101460.33
2018-03-19T00:57:00.340Z,101451.13
2018-03-19T01:02:02.829Z,101449.67
2018-03-19T01:07:05.686Z,101445.83
2018-03-19T01:12:08.855Z,101443.92
2018-03-19T01:17:11.387Z,101450.61
2018-03-19T01:22:13.934Z,101442.21
2018-03-19T01:27:16.449Z,101439.60
2018-03-19T01:32:19.059Z,101437.36
2018-03-19T01:37:21.545Z,101433.12
2018-03-19T01:42:24.030Z,101427.86
2018-03-19T01:47:26.558Z,101418.55
2018-03-19T01:52:40.883Z,101418.99
2018-03-19T01:57:43.423Z,101421.31
2018-03-19T02:02:45.915Z,101415.34
2018-03-19T02:07:48.394Z,101417.86
2018-03-19T02:12:50.899Z,101415.33
2018-03-19T02:17:53.377Z,101414.92
2018-03-19T02:22:55.872Z,101410.95
2018-03-19T02:27:58.366Z,101414.56
2018-03-19T02:33:00.842Z,101414.44
2018-03-19T02:38:03.299Z,101412.56
2018-03-19T02:43:05.805Z,101412.11
2018-03-19T02:48:08.346Z,101413.91
2018-03-19T02:53:10.820Z,101423.58
2018-03-19T02:58:13.334Z,101415.98
2018-03-19T03:03:15.802Z,101419.38
2018-03-19T03:08:18.279Z,101422.29
2018-03-19T03:13:20.748Z,101423.20
2018-03-19T03:18:23.220Z,101423.82
2018-03-19T03:23:25.679Z,101426.50
2018-03-19T03:28:28.150Z,101428.31
2018-03-19T03:33:30.640Z,101419.63
2018-03-19T03:38:33.139Z,101422.66
2018-03-19T03:43:36.937Z,101421.23
2018-03-19T03:48:40.354Z,101421.69
2018-03-19T03:53:42.924Z,101425.17
2018-03-19T03:58:45.434Z,101426.66
2018-03-19T04:03:48.050Z,101429.33
2018-03-19T04:08:52.098Z,101420.89
2018-03-19T04:13:55.167Z,101426.73
2018-03-19T04:18:57.643Z,101416.36
2018-03-19T04:24:00.271Z,101416.92
2018-03-19T04:29:03.079Z,101420.58
2018-03-19T04:34:05.780Z,101412.08
2018-03-19T04:39:08.890Z,101422.94
2018-03-19T04:44:11.479Z,101419.48
2018-03-19T04:49:13.998Z,101414.50
2018-03-19T04:54:16.508Z,101417.31
2018-03-19T04:59:18.994Z,101418.11
2018-03-19T05:04:21.486Z,101418.58
2018-03-19T05:09:24.023Z,101418.02
2018-03-19T05:14:26.520Z,101421.31
2018-03-19T05:19:29.006Z,101423.94
2018-03-19T05:24:31.501Z,101421.34
2018-03-19T05:29:34.386Z,101430.16
2018-03-19T05:34:37.839Z,101424.20
2018-03-19T05:39:40.360Z,101429.90
2018-03-19T05:44:42.909Z,101427.37
2018-03-19T05:49:45.455Z,101423.04
2018-03-19T05:54:47.984Z,101425.20
2018-03-19T05:59:50.482Z,101430.53
2018-03-19T06:04:53.052Z,101421.34
2018-03-19T06:09:55.564Z,101430.05
2018-03-19T06:15:05.721Z,101431.67
2018-03-19T06:20:09.013Z,101433.75
2018-03-19T06:25:11.551Z,101436.66
2018-03-19T06:30:14.214Z,101442.34
2018-03-19T06:35:16.772Z,101447.61
2018-03-19T06:40:19.259Z,101450.52
2018-03-19T06:45:21.791Z,101454.63
2018-03-19T06:50:24.279Z,101448.67
2018-03-19T06:55:26.796Z,101445.32
2018-03-19T07:00:29.299Z,101440.81
2018-03-19T07:05:31.788Z,101446.16
2018-03-19T07:10:34.296Z,101443.34
2018-03-19T07:15:36.796Z,101437.94
2018-03-19T07:20:39.303Z,101441.75
2018-03-19T07:25:41.847Z,101440.66
2018-03-19T07:30:45.209Z,101433.03
2018-03-19T07:35:48.527Z,101434.89
2018-03-19T07:40:51.219Z,101428.56
2018-03-19T07:45:54.541Z,101427.48
2018-03-19T07:50:57.975Z,101422.77
2018-03-19T07:56:00.762Z,101428.89
2018-03-19T08:01:03.347Z,101419.05
2018-03-19T08:06:06.086Z,101418.46
2018-03-19T08:11:08.657Z,101413.16
2018-03-19T08:16:11.156Z,101413.73
2018-03-19T08:21:13.684Z,101409.51
2018-03-19T08:26:16.848Z,101409.66
2018-03-19T08:31:19.338Z,101408.62
2018-03-19T08:36:21.852Z,101406.83
2018-03-19T08:41:24.830Z,101402.59
2018-03-19T08:46:27.565Z,101407.19
2018-03-19T08:51:30.038Z,101397.77
2018-03-19T08:56:32.513Z,101389.50
2018-03-19T09:01:35.045Z,101383.59
2018-03-19T09:06:37.630Z,101388.47
2018-03-19T09:11:40.214Z,101390.80
2018-03-19T09:16:43.762Z,101375.85
2018-03-19T09:21:46.276Z,101371.52
2018-03-19T09:26:48.817Z,101374.05
2018-03-19T09:31:51.272Z,101364.95
2018-03-19T09:36:53.776Z,101380.28
2018-03-19T09:41:56.284Z,101367.09
2018-03-19T09:46:58.776Z,101364.51
2018-03-19T09:52:01.277Z,101360.07
2018-03-19T09:57:03.781Z,101355.19
2018-03-19T10:02:06.332Z,101351.47
2018-03-19T10:07:08.860Z,101338.52
2018-03-19T10:12:11.446Z,101333.80
2018-03-19T10:17:13.921Z,101362.61
2018-03-19T10:22:16.424Z,101351.84
2018-03-19T10:27:18.901Z,101335.98
2018-03-19T10:32:21.415Z,101334.13
2018-03-19T10:37:23.879Z,101323.27
2018-03-19T10:42:26.391Z,101320.45
2018-03-19T10:47:28.900Z,101319.64
2018-03-19T10:52:31.434Z,101311.46
2018-03-19T10:57:34.015Z,101298.86
2018-03-19T11:02:42.177Z,101288.61
2018-03-19T11:07:46.474Z,101283.77
2018-03-19T11:12:48.956Z,101283.38
2018-03-19T11:17:51.679Z,101272.87
2018-03-19T11:22:55.326Z,101266.48
2018-03-19T11:27:57.820Z,101261.85
2018-03-19T11:33:00.357Z,101260.22
2018-03-19T11:38:02.843Z,101256.73
2018-03-19T11:43:05.388Z,101241.31
2018-03-19T11:48:07.937Z,101241.54
2018-03-19T11:53:10.541Z,101244.30
2018-03-19T11:58:13.888Z,101229.73
2018-03-19T12:03:16.612Z,101225.46
2018-03-19T12:08:19.081Z,101218.74
2018-03-19T12:13:21.559Z,101210.62
2018-03-19T12:18:24.063Z,101202.94
2018-03-19T12:23:26.557Z,101188.81
2018-03-19T12:28:29.038Z,101191.39
2018-03-19T12:33:31.516Z,101185.36
2018-03-19T12:38:34.016Z,101174.56
2018-03-19T12:43:36.582Z,101160.36
2018-03-19T12:48:39.916Z,101160.56
2018-03-19T12:53:42.465Z,101153.22
2018-03-19T12:58:44.937Z,101154.61
2018-03-19T13:03:47.457Z,101142.28
2018-03-19T13:08:50.066Z,101138.80
2018-03-19T13:13:52.561Z,101137.30
2018-03-19T13:18:55.047Z,101135.13
2018-03-19T13:23:57.515Z,101130.41
2018-03-19T13:29:00.026Z,101114.49
2018-03-19T13:34:02.552Z,101120.91
2018-03-19T13:39:05.138Z,101120.22
2018-03-19T13:44:07.833Z,101115.34
2018-03-19T13:49:11.177Z,101111.34
2018-03-19T13:54:13.692Z,101102.28
2018-03-19T13:59:16.221Z,101097.20
2018-03-19T14:04:18.741Z,101096.51
2018-03-19T14:09:21.198Z,101095.70
2018-03-19T14:14:23.824Z,101094.49
2018-03-19T14:19:26.345Z,101084.89
2018-03-19T14:24:28.855Z,101086.64
2018-03-19T14:29:31.341Z,101077.56
2018-03-19T14:34:33.946Z,101073.55
2018-03-19T14:39:36.516Z,101060.53
2018-03-19T14:44:39.114Z,101064.07
2018-03-19T14:49:41.751Z,101056.79
2018-03-19T14:54:44.301Z,101062.90
2018-03-19T14:59:46.763Z,101063.86
2018-03-19T15:04:49.272Z,101052.59
2018-03-19T15:09:52.340Z,101045.03
2018-03-19T15:14:54.810Z,101047.20
2018-03-19T15:19:57.359Z,101040.27
2018-03-19T15:24:59.823Z,101031.81
2018-03-19T15:30:02.295Z,101026.59
2018-03-19T15:35:04.835Z,101028.44
2018-03-19T15:40:07.461Z,101023.49
2018-03-19T15:45:09.952Z,101016.72
2018-03-19T15:50:12.531Z,101014.98
2018-03-19T15:55:15.134Z,101014.67
2018-03-19T16:00:17.720Z,101015.55
2018-03-19T16:05:20.217Z,101010.78
2018-03-19T16:10:22.719Z,101005.96
2018-03-19T16:15:25.211Z,101004.56
2018-03-19T16:20:27.684Z,101010.40
2018-03-19T16:25:30.173Z,101014.08
2018-03-19T16:30:32.659Z,101014.62
2018-03-19T16:35:35.367Z,101020.53
2018-03-19T16:40:41.340Z,101017.27
2018-03-19T16:45:43.955Z,101019.01
2018-03-19T16:50:46.487Z,101018.15
2018-03-19T16:55:48.954Z,101020.80
2018-03-19T17:00:51.500Z,101021.02
2018-03-19T17:05:53.974Z,101015.68
2018-03-19T17:10:56.509Z,101015.39
2018-03-19T17:15:59.034Z,101027.08
2018-03-19T17:21:01.584Z,101029.58
2018-03-19T17:26:04.100Z,101031.99
2018-03-19T17:31:06.713Z,101041.63
2018-03-19T17:36:09.280Z,101043.57
2018-03-19T17:41:11.853Z,101047.29
2018-03-19T17:46:14.447Z,101053.73
2018-03-19T17:51:16.985Z,101057.89
2018-03-19T17:56:20.310Z,101064.02
2018-03-19T18:01:22.783Z,101066.92
2018-03-19T18:06:25.256Z,101072.88
2018-03-19T18:11:28.419Z,101079.98
2018-03-19T18:16:30.900Z,101083.95
2018-03-19T18:21:33.453Z,101087.57
2018-03-19T18:26:36.176Z,101091.50
2018-03-19T18:31:38.869Z,101092.28
2018-03-19T18:36:41.525Z,101086.02
2018-03-19T18:41:44.065Z,101086.38
2018-03-19T18:46:46.554Z,101084.22
2018-03-19T18:51:49.095Z,101094.98
2018-03-19T18:56:51.620Z,101093.85
2018-03-19T19:01:54.130Z,101099.42
2018-03-19T19:06:56.804Z,101098.58
2018-03-19T19:11:59.263Z,101097.59
2018-03-19T19:17:01.742Z,101103.46
2018-03-19T19:22:04.308Z,101105.20
2018-03-19T19:27:07.145Z,101105.02
2018-03-19T19:32:09.694Z,101108.91
2018-03-19T19:37:12.232Z,101103.55
2018-03-19T19:42:14.865Z,101105.75
2018-03-19T19:47:18.815Z,101106.06
2018-03-19T19:52:23.078Z,101098.02
2018-03-19T19:57:27.745Z,101098.32
2018-03-19T20:02:31.595Z,101101.73
2018-03-19T20:07:36.893Z,101095.90
2018-03-19T20:12:41.129Z,101089.55
2018-03-19T20:17:44.216Z,101099.10
2018-03-19T20:22:46.684Z,101093.12
2018-03-19T20:27:50.326Z,101083.66
2018-03-19T20:32:52.900Z,101083.09
2018-03-19T20:37:55.393Z,101078.07
2018-03-19T20:42:57.942Z,101075.67
2018-03-19T20:48:00.427Z,101081.92
2018-03-19T20:53:02.920Z,101073.18
2018-03-19T20:58:05.443Z,101067.28
2018-03-19T21:03:07.951Z,101059.94
2018-03-19T21:08:10.467Z,101067.93
2018-03-19T21:13:12.969Z,101059.38
2018-03-19T21:18:15.472Z,101051.98
2018-03-19T21:23:17.971Z,101048.57
2018-03-19T21:28:20.449Z,101039.81
2018-03-19T21:33:22.946Z,101034.44
2018-03-19T21:38:25.475Z,101030.52
2018-03-19T21:43:28.070Z,101026.78
2018-03-19T21:48:30.559Z,101033.69
2018-03-19T21:53:33.095Z,101039.20
2018-03-19T21:58:35.581Z,101024.98
2018-03-19T22:03:38.068Z,101028.25
2018-03-19T22:08:40.540Z,101029.91
2018-03-19T22:13:43.043Z,101023.90
2018-03-19T22:18:45.515Z,101021.41
2018-03-19T22:23:48.038Z,101017.03
2018-03-19T22:28:50.534Z,101005.76
2018-03-19T22:33:53.319Z,101004.53
2018-03-19T22:38:56.189Z,100999.24
2018-03-19T22:43:59.013Z,100996.41
2018-03-19T22:49:01.688Z,100993.52
2018-03-19T22:54:04.327Z,100990.36
2018-03-19T22:59:06.838Z,100983.28
2018-03-19T23:04:10.645Z,100982.72
2018-03-19T23:09:13.305Z,100973.97
2018-03-19T23:14:16.077Z,100972.59
2018-03-19T23:19:18.555Z,100979.26
2018-03-19T23:24:21.041Z,100967.66
2018-03-19T23:29:23.598Z,100965.89
2018-03-19T23:34:26.336Z,100962.96
2018-03-19T23:39:28.849Z,100961.97
2018-03-19T23:44:31.362Z,100950.66
2018-03-19T23:49:33.894Z,100956.46
2018-03-19T23:54:36.367Z,100945.19
2018-03-19T23:59:38.866Z,100943.86
